sensor_id;sensor_type;location;lat;lon;timestamp;temperature;humidity
38325;DHT22;24126;52.672;13.622;2022-11-20T00:00:18;6.40;73.20
38325;DHT22;24126;52.672;13.622;2022-11-20T00:02:45;6.40;73.10
38325;DHT22;24126;52.672;13.622;2022-11-20T00:05:12;6.40;73.10
38325;DHT22;24126;52.672;13.622;2022-11-20T00:07:39;6.40;73.20
38325;DHT22;24126;52.672;13.622;2022-11-20T00:10:06;6.30;73.10
38325;DHT22;24126;52.672;13.622;2022-11-20T00:12:34;6.40;73.20
38325;DHT22;24126;52.672;13.622;2022-11-20T00:15:02;6.30;73.20
38325;DHT22;24126;52.672;13.622;2022-11-20T00:17:29;6.30;73.10
38325;DHT22;24126;52.672;13.622;2022-11-20T00:19:56;6.30;73.00
38325;DHT22;24126;52.672;13.622;2022-11-20T00:22:23;6.30;73.10
38325;DHT22;24126;52.672;13.622;2022-11-20T00:24:50;6.30;73.00
38325;DHT22;24126;52.672;13.622;2022-11-20T00:27:17;6.30;73.00
38325;DHT22;24126;52.672;13.622;2022-11-20T00:29:44;6.30;73.00
38325;DHT22;24126;52.672;13.622;2022-11-20T00:32:11;6.30;73.00
38325;DHT22;24126;52.672;13.622;2022-11-20T00:34:38;6.20;72.90
38325;DHT22;24126;52.672;13.622;2022-11-20T00:37:05;6.20;73.00
38325;DHT22;24126;52.672;13.622;2022-11-20T00:39:32;6.20;73.00
38325;DHT22;24126;52.672;13.622;2022-11-20T00:41:59;6.20;73.00
38325;DHT22;24126;52.672;13.622;2022-11-20T00:44:26;6.20;73.10
38325;DHT22;24126;52.672;13.622;2022-11-20T00:46:53;6.20;73.10
38325;DHT22;24126;52.672;13.622;2022-11-20T00:49:20;6.20;73.10
38325;DHT22;24126;52.672;13.622;2022-11-20T00:51:47;6.20;73.00
38325;DHT22;24126;52.672;13.622;2022-11-20T00:54:14;6.20;73.00
38325;DHT22;24126;52.672;13.622;2022-11-20T00:56:41;6.20;73.00
38325;DHT22;24126;52.672;13.622;2022-11-20T00:59:08;6.20;73.00
38325;DHT22;24126;52.672;13.622;2022-11-20T01:01:36;6.20;73.00
38325;DHT22;24126;52.672;13.622;2022-11-20T01:04:03;6.20;73.00
38325;DHT22;24126;52.672;13.622;2022-11-20T01:06:31;6.20;73.10
38325;DHT22;24126;52.672;13.622;2022-11-20T01:08:59;6.20;73.10
38325;DHT22;24126;52.672;13.622;2022-11-20T01:11:27;6.20;73.00
38325;DHT22;24126;52.672;13.622;2022-11-20T01:13:55;6.20;73.00
38325;DHT22;24126;52.672;13.622;2022-11-20T01:16:29;6.20;73.10
38325;DHT22;24126;52.672;13.622;2022-11-20T01:18:57;6.20;73.00
38325;DHT22;24126;52.672;13.622;2022-11-20T01:21:26;6.20;72.90
38325;DHT22;24126;52.672;13.622;2022-11-20T01:23:54;6.20;73.00
38325;DHT22;24126;52.672;13.622;2022-11-20T01:26:22;6.20;72.90
38325;DHT22;24126;52.672;13.622;2022-11-20T01:28:49;6.20;72.90
38325;DHT22;24126;52.672;13.622;2022-11-20T01:31:27;6.20;72.90
38325;DHT22;24126;52.672;13.622;2022-11-20T01:33:56;6.20;72.80
38325;DHT22;24126;52.672;13.622;2022-11-20T01:36:24;6.20;72.90
38325;DHT22;24126;52.672;13.622;2022-11-20T01:38:55;6.20;72.80
38325;DHT22;24126;52.672;13.622;2022-11-20T01:41:23;6.20;72.80
38325;DHT22;24126;52.672;13.622;2022-11-20T01:44:09;6.10;72.80
38325;DHT22;24126;52.672;13.622;2022-11-20T01:46:38;6.20;72.80
38325;DHT22;24126;52.672;13.622;2022-11-20T01:51:35;6.10;72.80
38325;DHT22;24126;52.672;13.622;2022-11-20T01:54:06;6.10;72.70
38325;DHT22;24126;52.672;13.622;2022-11-20T01:56:35;6.10;72.80
38325;DHT22;24126;52.672;13.622;2022-11-20T01:59:04;6.10;72.80
38325;DHT22;24126;52.672;13.622;2022-11-20T02:01:32;6.10;72.80
38325;DHT22;24126;52.672;13.622;2022-11-20T02:04:00;6.10;72.70
38325;DHT22;24126;52.672;13.622;2022-11-20T02:06:32;6.10;72.70
38325;DHT22;24126;52.672;13.622;2022-11-20T02:09:01;6.10;72.70
38325;DHT22;24126;52.672;13.622;2022-11-20T02:11:29;6.10;72.70
38325;DHT22;24126;52.672;13.622;2022-11-20T02:13:57;6.10;72.70
38325;DHT22;24126;52.672;13.622;2022-11-20T02:16:25;6.10;72.70
38325;DHT22;24126;52.672;13.622;2022-11-20T02:18:53;6.10;72.70
38325;DHT22;24126;52.672;13.622;2022-11-20T02:21:28;6.10;72.70
38325;DHT22;24126;52.672;13.622;2022-11-20T02:23:59;6.10;72.70
38325;DHT22;24126;52.672;13.622;2022-11-20T02:26:27;6.10;72.70
38325;DHT22;24126;52.672;13.622;2022-11-20T02:28:54;6.10;72.70
38325;DHT22;24126;52.672;13.622;2022-11-20T02:31:21;6.10;72.60
38325;DHT22;24126;52.672;13.622;2022-11-20T02:33:53;6.10;72.70
38325;DHT22;24126;52.672;13.622;2022-11-20T02:36:20;6.10;72.70
38325;DHT22;24126;52.672;13.622;2022-11-20T02:38:48;6.10;72.70
38325;DHT22;24126;52.672;13.622;2022-11-20T02:41:15;6.10;72.60
38325;DHT22;24126;52.672;13.622;2022-11-20T02:43:42;6.10;72.50
38325;DHT22;24126;52.672;13.622;2022-11-20T02:46:09;6.20;72.60
38325;DHT22;24126;52.672;13.622;2022-11-20T02:48:36;6.10;72.50
38325;DHT22;24126;52.672;13.622;2022-11-20T02:51:04;6.10;72.50
38325;DHT22;24126;52.672;13.622;2022-11-20T02:53:31;6.10;72.50
38325;DHT22;24126;52.672;13.622;2022-11-20T02:55:58;6.10;72.40
38325;DHT22;24126;52.672;13.622;2022-11-20T02:58:25;6.10;72.40
38325;DHT22;24126;52.672;13.622;2022-11-20T03:00:52;6.10;72.40
38325;DHT22;24126;52.672;13.622;2022-11-20T03:03:19;6.10;72.40
38325;DHT22;24126;52.672;13.622;2022-11-20T03:05:46;6.10;72.40
38325;DHT22;24126;52.672;13.622;2022-11-20T03:08:13;6.10;72.40
38325;DHT22;24126;52.672;13.622;2022-11-20T03:10:40;6.10;72.40
38325;DHT22;24126;52.672;13.622;2022-11-20T03:13:07;6.10;72.30
38325;DHT22;24126;52.672;13.622;2022-11-20T03:15:35;6.10;72.20
38325;DHT22;24126;52.672;13.622;2022-11-20T03:18:02;6.10;72.20
38325;DHT22;24126;52.672;13.622;2022-11-20T03:20:29;6.10;72.20
38325;DHT22;24126;52.672;13.622;2022-11-20T03:22:56;6.10;72.20
38325;DHT22;24126;52.672;13.622;2022-11-20T03:25:23;6.10;72.10
38325;DHT22;24126;52.672;13.622;2022-11-20T03:27:50;6.10;72.10
38325;DHT22;24126;52.672;13.622;2022-11-20T03:30:17;6.10;72.20
38325;DHT22;24126;52.672;13.622;2022-11-20T03:32:44;6.10;72.10
38325;DHT22;24126;52.672;13.622;2022-11-20T03:35:11;6.10;72.20
38325;DHT22;24126;52.672;13.622;2022-11-20T03:37:38;6.10;72.20
38325;DHT22;24126;52.672;13.622;2022-11-20T03:40:06;6.00;72.10
38325;DHT22;24126;52.672;13.622;2022-11-20T03:42:33;6.00;72.20
38325;DHT22;24126;52.672;13.622;2022-11-20T03:45:15;6.00;72.20
38325;DHT22;24126;52.672;13.622;2022-11-20T03:47:43;6.00;72.20
38325;DHT22;24126;52.672;13.622;2022-11-20T03:50:11;6.10;72.20
38325;DHT22;24126;52.672;13.622;2022-11-20T03:52:39;6.10;72.90
38325;DHT22;24126;52.672;13.622;2022-11-20T03:55:06;6.10;72.10
38325;DHT22;24126;52.672;13.622;2022-11-20T03:57:34;6.00;72.00
38325;DHT22;24126;52.672;13.622;2022-11-20T04:00:02;6.00;72.00
38325;DHT22;24126;52.672;13.622;2022-11-20T04:02:30;6.00;72.10
38325;DHT22;24126;52.672;13.622;2022-11-20T04:04:57;6.10;72.10
38325;DHT22;24126;52.672;13.622;2022-11-20T04:07:24;6.00;72.00
38325;DHT22;24126;52.672;13.622;2022-11-20T04:09:51;6.00;71.90
38325;DHT22;24126;52.672;13.622;2022-11-20T04:12:18;6.00;71.90
38325;DHT22;24126;52.672;13.622;2022-11-20T04:14:45;6.00;71.90
38325;DHT22;24126;52.672;13.622;2022-11-20T04:17:12;6.00;71.90
38325;DHT22;24126;52.672;13.622;2022-11-20T04:19:39;6.00;72.00
38325;DHT22;24126;52.672;13.622;2022-11-20T04:22:06;6.10;72.10
38325;DHT22;24126;52.672;13.622;2022-11-20T04:24:33;6.10;72.00
38325;DHT22;24126;52.672;13.622;2022-11-20T04:27:00;6.10;72.00
38325;DHT22;24126;52.672;13.622;2022-11-20T04:29:27;6.10;71.90
38325;DHT22;24126;52.672;13.622;2022-11-20T04:31:54;6.10;72.00
38325;DHT22;24126;52.672;13.622;2022-11-20T04:34:21;6.10;71.90
38325;DHT22;24126;52.672;13.622;2022-11-20T04:36:48;6.10;71.90
38325;DHT22;24126;52.672;13.622;2022-11-20T04:39:15;6.10;71.90
38325;DHT22;24126;52.672;13.622;2022-11-20T04:41:42;6.10;71.90
38325;DHT22;24126;52.672;13.622;2022-11-20T04:44:09;6.10;71.90
38325;DHT22;24126;52.672;13.622;2022-11-20T04:46:38;6.10;71.80
38325;DHT22;24126;52.672;13.622;2022-11-20T04:49:05;6.10;71.80
38325;DHT22;24126;52.672;13.622;2022-11-20T04:51:32;6.10;71.80
38325;DHT22;24126;52.672;13.622;2022-11-20T04:53:59;6.10;71.80
38325;DHT22;24126;52.672;13.622;2022-11-20T04:56:26;6.10;71.90
38325;DHT22;24126;52.672;13.622;2022-11-20T04:58:53;6.10;72.00
38325;DHT22;24126;52.672;13.622;2022-11-20T05:01:21;6.10;71.90
38325;DHT22;24126;52.672;13.622;2022-11-20T05:03:49;6.10;71.90
38325;DHT22;24126;52.672;13.622;2022-11-20T05:06:17;6.10;71.80
38325;DHT22;24126;52.672;13.622;2022-11-20T05:08:45;6.10;71.80
38325;DHT22;24126;52.672;13.622;2022-11-20T05:11:13;6.10;71.80
38325;DHT22;24126;52.672;13.622;2022-11-20T05:13:40;6.00;71.70
38325;DHT22;24126;52.672;13.622;2022-11-20T05:16:11;6.00;71.70
38325;DHT22;24126;52.672;13.622;2022-11-20T05:18:38;6.00;71.80
38325;DHT22;24126;52.672;13.622;2022-11-20T05:21:06;6.00;71.80
38325;DHT22;24126;52.672;13.622;2022-11-20T05:23:33;6.00;71.80
38325;DHT22;24126;52.672;13.622;2022-11-20T05:26:00;6.00;71.80
38325;DHT22;24126;52.672;13.622;2022-11-20T05:28:28;6.00;71.80
38325;DHT22;24126;52.672;13.622;2022-11-20T05:30:56;6.00;71.80
38325;DHT22;24126;52.672;13.622;2022-11-20T05:33:23;6.00;71.70
38325;DHT22;24126;52.672;13.622;2022-11-20T05:35:50;6.00;71.90
38325;DHT22;24126;52.672;13.622;2022-11-20T05:38:17;6.10;71.80
38325;DHT22;24126;52.672;13.622;2022-11-20T05:40:44;6.10;71.60
38325;DHT22;24126;52.672;13.622;2022-11-20T05:43:11;6.10;71.50
38325;DHT22;24126;52.672;13.622;2022-11-20T05:45:38;6.10;71.30
38325;DHT22;24126;52.672;13.622;2022-11-20T05:48:05;6.00;71.20
38325;DHT22;24126;52.672;13.622;2022-11-20T05:50:32;6.00;71.20
38325;DHT22;24126;52.672;13.622;2022-11-20T05:52:59;6.00;71.20
38325;DHT22;24126;52.672;13.622;2022-11-20T05:55:26;6.00;71.30
38325;DHT22;24126;52.672;13.622;2022-11-20T05:57:54;6.00;71.20
38325;DHT22;24126;52.672;13.622;2022-11-20T06:00:21;6.00;71.30
38325;DHT22;24126;52.672;13.622;2022-11-20T06:02:48;5.90;71.20
38325;DHT22;24126;52.672;13.622;2022-11-20T06:05:15;5.90;71.20
38325;DHT22;24126;52.672;13.622;2022-11-20T06:07:42;5.90;71.30
38325;DHT22;24126;52.672;13.622;2022-11-20T06:10:10;5.90;71.30
38325;DHT22;24126;52.672;13.622;2022-11-20T06:12:37;5.90;71.30
38325;DHT22;24126;52.672;13.622;2022-11-20T06:15:04;5.90;71.30
38325;DHT22;24126;52.672;13.622;2022-11-20T06:17:31;5.90;71.30
38325;DHT22;24126;52.672;13.622;2022-11-20T06:19:58;5.90;71.20
38325;DHT22;24126;52.672;13.622;2022-11-20T06:22:25;5.90;71.20
38325;DHT22;24126;52.672;13.622;2022-11-20T06:24:52;5.90;71.30
38325;DHT22;24126;52.672;13.622;2022-11-20T06:27:20;5.90;71.30
38325;DHT22;24126;52.672;13.622;2022-11-20T06:29:47;5.90;71.20
38325;DHT22;24126;52.672;13.622;2022-11-20T06:32:14;5.80;71.20
38325;DHT22;24126;52.672;13.622;2022-11-20T06:34:41;5.80;71.20
38325;DHT22;24126;52.672;13.622;2022-11-20T06:37:08;5.80;71.20
38325;DHT22;24126;52.672;13.622;2022-11-20T06:39:35;5.80;71.30
38325;DHT22;24126;52.672;13.622;2022-11-20T06:42:02;5.80;71.30
38325;DHT22;24126;52.672;13.622;2022-11-20T06:44:29;5.80;71.30
38325;DHT22;24126;52.672;13.622;2022-11-20T06:46:56;5.80;71.40
38325;DHT22;24126;52.672;13.622;2022-11-20T06:49:23;5.80;71.30
38325;DHT22;24126;52.672;13.622;2022-11-20T06:51:51;5.80;71.40
38325;DHT22;24126;52.672;13.622;2022-11-20T06:54:18;5.80;71.40
38325;DHT22;24126;52.672;13.622;2022-11-20T06:56:48;5.80;71.40
38325;DHT22;24126;52.672;13.622;2022-11-20T06:59:15;5.80;71.40
38325;DHT22;24126;52.672;13.622;2022-11-20T07:01:42;5.90;71.30
38325;DHT22;24126;52.672;13.622;2022-11-20T07:04:09;5.90;71.30
38325;DHT22;24126;52.672;13.622;2022-11-20T07:06:36;5.90;71.30
38325;DHT22;24126;52.672;13.622;2022-11-20T07:09:03;5.90;71.40
38325;DHT22;24126;52.672;13.622;2022-11-20T07:11:30;5.90;71.30
38325;DHT22;24126;52.672;13.622;2022-11-20T07:13:57;5.90;71.40
38325;DHT22;24126;52.672;13.622;2022-11-20T07:16:24;5.90;71.40
38325;DHT22;24126;52.672;13.622;2022-11-20T07:18:51;5.90;71.30
38325;DHT22;24126;52.672;13.622;2022-11-20T07:21:19;6.00;71.20
38325;DHT22;24126;52.672;13.622;2022-11-20T07:23:46;5.90;71.10
38325;DHT22;24126;52.672;13.622;2022-11-20T07:26:13;5.90;71.10
38325;DHT22;24126;52.672;13.622;2022-11-20T07:28:43;6.00;71.10
38325;DHT22;24126;52.672;13.622;2022-11-20T07:31:10;6.00;71.10
38325;DHT22;24126;52.672;13.622;2022-11-20T07:33:38;6.00;71.10
38325;DHT22;24126;52.672;13.622;2022-11-20T07:36:05;6.00;71.10
38325;DHT22;24126;52.672;13.622;2022-11-20T07:38:32;6.00;71.10
38325;DHT22;24126;52.672;13.622;2022-11-20T07:40:59;6.00;71.00
38325;DHT22;24126;52.672;13.622;2022-11-20T07:43:27;6.10;71.00
38325;DHT22;24126;52.672;13.622;2022-11-20T07:45:57;6.10;71.00
38325;DHT22;24126;52.672;13.622;2022-11-20T07:48:24;6.10;70.90
38325;DHT22;24126;52.672;13.622;2022-11-20T07:50:55;6.10;70.90
38325;DHT22;24126;52.672;13.622;2022-11-20T07:53:22;6.20;70.90
38325;DHT22;24126;52.672;13.622;2022-11-20T07:55:49;6.20;70.80
38325;DHT22;24126;52.672;13.622;2022-11-20T07:58:18;6.30;70.70
38325;DHT22;24126;52.672;13.622;2022-11-20T08:00:45;6.30;70.70
38325;DHT22;24126;52.672;13.622;2022-11-20T08:03:13;6.30;70.60
38325;DHT22;24126;52.672;13.622;2022-11-20T08:05:40;6.30;70.60
38325;DHT22;24126;52.672;13.622;2022-11-20T08:08:07;6.30;70.70
38325;DHT22;24126;52.672;13.622;2022-11-20T08:10:34;6.30;70.70
38325;DHT22;24126;52.672;13.622;2022-11-20T08:13:01;6.30;70.80
38325;DHT22;24126;52.672;13.622;2022-11-20T08:15:49;6.40;70.90
38325;DHT22;24126;52.672;13.622;2022-11-20T08:18:17;6.40;70.90
38325;DHT22;24126;52.672;13.622;2022-11-20T08:20:44;6.40;70.80
38325;DHT22;24126;52.672;13.622;2022-11-20T08:23:11;6.40;70.80
38325;DHT22;24126;52.672;13.622;2022-11-20T08:25:38;6.30;70.80
38325;DHT22;24126;52.672;13.622;2022-11-20T08:28:06;6.30;70.90
38325;DHT22;24126;52.672;13.622;2022-11-20T08:30:34;6.40;71.00
38325;DHT22;24126;52.672;13.622;2022-11-20T08:33:02;6.40;70.80
38325;DHT22;24126;52.672;13.622;2022-11-20T08:35:32;6.40;70.70
38325;DHT22;24126;52.672;13.622;2022-11-20T08:37:59;6.50;70.70
38325;DHT22;24126;52.672;13.622;2022-11-20T08:40:26;6.50;70.70
38325;DHT22;24126;52.672;13.622;2022-11-20T08:42:53;6.50;70.60
38325;DHT22;24126;52.672;13.622;2022-11-20T08:45:20;6.60;70.80
38325;DHT22;24126;52.672;13.622;2022-11-20T08:47:48;6.60;70.60
38325;DHT22;24126;52.672;13.622;2022-11-20T08:50:15;6.60;70.60
38325;DHT22;24126;52.672;13.622;2022-11-20T08:52:42;6.70;70.60
38325;DHT22;24126;52.672;13.622;2022-11-20T08:55:09;6.70;70.50
38325;DHT22;24126;52.672;13.622;2022-11-20T08:57:37;6.80;70.50
38325;DHT22;24126;52.672;13.622;2022-11-20T09:00:04;6.90;70.40
38325;DHT22;24126;52.672;13.622;2022-11-20T09:02:32;6.90;70.10
38325;DHT22;24126;52.672;13.622;2022-11-20T09:04:59;7.00;70.00
38325;DHT22;24126;52.672;13.622;2022-11-20T09:07:28;7.00;70.00
38325;DHT22;24126;52.672;13.622;2022-11-20T09:09:55;7.00;69.80
38325;DHT22;24126;52.672;13.622;2022-11-20T09:12:22;7.00;69.60
38325;DHT22;24126;52.672;13.622;2022-11-20T09:14:50;7.00;69.50
38325;DHT22;24126;52.672;13.622;2022-11-20T09:17:17;7.00;69.60
38325;DHT22;24126;52.672;13.622;2022-11-20T09:19:44;7.00;69.60
38325;DHT22;24126;52.672;13.622;2022-11-20T09:22:11;7.00;69.60
38325;DHT22;24126;52.672;13.622;2022-11-20T09:24:38;7.00;69.60
38325;DHT22;24126;52.672;13.622;2022-11-20T09:27:05;7.10;69.60
38325;DHT22;24126;52.672;13.622;2022-11-20T09:29:32;7.10;69.50
38325;DHT22;24126;52.672;13.622;2022-11-20T09:32:01;7.20;69.50
38325;DHT22;24126;52.672;13.622;2022-11-20T09:34:28;7.20;69.40
38325;DHT22;24126;52.672;13.622;2022-11-20T09:36:55;7.30;69.40
38325;DHT22;24126;52.672;13.622;2022-11-20T09:39:22;7.30;69.20
38325;DHT22;24126;52.672;13.622;2022-11-20T09:41:58;7.40;69.20
38325;DHT22;24126;52.672;13.622;2022-11-20T09:50:06;7.60;68.60
38325;DHT22;24126;52.672;13.622;2022-11-20T09:52:59;7.60;68.50
38325;DHT22;24126;52.672;13.622;2022-11-20T09:55:29;7.70;68.40
38325;DHT22;24126;52.672;13.622;2022-11-20T09:57:57;7.70;68.40
38325;DHT22;24126;52.672;13.622;2022-11-20T10:00:25;7.70;68.70
38325;DHT22;24126;52.672;13.622;2022-11-20T10:02:55;7.70;67.70
38325;DHT22;24126;52.672;13.622;2022-11-20T10:05:31;7.70;67.70
38325;DHT22;24126;52.672;13.622;2022-11-20T10:08:21;7.80;67.80
38325;DHT22;24126;52.672;13.622;2022-11-20T10:10:52;7.80;67.80
38325;DHT22;24126;52.672;13.622;2022-11-20T10:18:19;7.80;67.80
38325;DHT22;24126;52.672;13.622;2022-11-20T10:20:56;7.80;67.70
38325;DHT22;24126;52.672;13.622;2022-11-20T10:26:17;7.80;67.30
38325;DHT22;24126;52.672;13.622;2022-11-20T10:31:20;7.90;67.70
38325;DHT22;24126;52.672;13.622;2022-11-20T10:33:50;8.00;67.80
38325;DHT22;24126;52.672;13.622;2022-11-20T10:36:23;8.10;67.40
38325;DHT22;24126;52.672;13.622;2022-11-20T10:39:06;8.20;67.30
38325;DHT22;24126;52.672;13.622;2022-11-20T10:41:36;8.30;67.30
38325;DHT22;24126;52.672;13.622;2022-11-20T10:44:15;8.40;67.00
38325;DHT22;24126;52.672;13.622;2022-11-20T10:47:04;8.60;66.50
38325;DHT22;24126;52.672;13.622;2022-11-20T10:49:32;8.60;66.00
38325;DHT22;24126;52.672;13.622;2022-11-20T10:52:12;8.70;66.00
38325;DHT22;24126;52.672;13.622;2022-11-20T10:54:43;8.70;65.80
38325;DHT22;24126;52.672;13.622;2022-11-20T11:00:06;8.70;65.50
38325;DHT22;24126;52.672;13.622;2022-11-20T11:02:41;8.70;65.60
38325;DHT22;24126;52.672;13.622;2022-11-20T11:05:24;8.70;65.40
38325;DHT22;24126;52.672;13.622;2022-11-20T11:07:54;8.60;65.40
38325;DHT22;24126;52.672;13.622;2022-11-20T11:10:27;8.60;65.60
38325;DHT22;24126;52.672;13.622;2022-11-20T11:12:55;8.60;65.40
38325;DHT22;24126;52.672;13.622;2022-11-20T11:17:56;8.60;65.70
38325;DHT22;24126;52.672;13.622;2022-11-20T11:20:24;8.60;65.60
38325;DHT22;24126;52.672;13.622;2022-11-20T11:22:55;8.60;65.60
38325;DHT22;24126;52.672;13.622;2022-11-20T11:27:50;8.50;65.60
38325;DHT22;24126;52.672;13.622;2022-11-20T11:30:18;8.40;65.70
38325;DHT22;24126;52.672;13.622;2022-11-20T11:32:46;8.40;65.90
38325;DHT22;24126;52.672;13.622;2022-11-20T11:35:20;8.30;66.00
38325;DHT22;24126;52.672;13.622;2022-11-20T11:37:48;8.30;66.00
38325;DHT22;24126;52.672;13.622;2022-11-20T11:40:17;8.20;66.20
38325;DHT22;24126;52.672;13.622;2022-11-20T11:42:47;8.10;66.60
38325;DHT22;24126;52.672;13.622;2022-11-20T11:45:16;8.10;66.60
38325;DHT22;24126;52.672;13.622;2022-11-20T11:55:04;8.00;66.80
38325;DHT22;24126;52.672;13.622;2022-11-20T11:57:55;8.00;66.80
38325;DHT22;24126;52.672;13.622;2022-11-20T12:00:23;8.00;66.70
38325;DHT22;24126;52.672;13.622;2022-11-20T12:07:50;7.80;67.00
38325;DHT22;24126;52.672;13.622;2022-11-20T12:12:48;7.80;67.70
38325;DHT22;24126;52.672;13.622;2022-11-20T12:15:25;7.80;67.60
38325;DHT22;24126;52.672;13.622;2022-11-20T12:17:53;7.80;67.50
38325;DHT22;24126;52.672;13.622;2022-11-20T12:20:20;7.70;67.40
38325;DHT22;24126;52.672;13.622;2022-11-20T12:23:03;7.70;67.60
38325;DHT22;24126;52.672;13.622;2022-11-20T12:25:35;7.60;67.60
38325;DHT22;24126;52.672;13.622;2022-11-20T12:30:29;7.60;68.00
38325;DHT22;24126;52.672;13.622;2022-11-20T12:33:13;7.60;68.30
38325;DHT22;24126;52.672;13.622;2022-11-20T12:44:08;7.70;68.10
38325;DHT22;24126;52.672;13.622;2022-11-20T12:47:08;7.70;68.10
38325;DHT22;24126;52.672;13.622;2022-11-20T12:49:43;7.70;68.00
38325;DHT22;24126;52.672;13.622;2022-11-20T12:52:24;7.80;68.20
38325;DHT22;24126;52.672;13.622;2022-11-20T12:57:24;7.90;68.10
38325;DHT22;24126;52.672;13.622;2022-11-20T13:02:24;8.00;68.00
38325;DHT22;24126;52.672;13.622;2022-11-20T13:07:21;8.10;67.60
38325;DHT22;24126;52.672;13.622;2022-11-20T13:09:48;8.10;67.40
38325;DHT22;24126;52.672;13.622;2022-11-20T13:12:18;8.10;67.20
38325;DHT22;24126;52.672;13.622;2022-11-20T13:14:49;8.00;67.30
38325;DHT22;24126;52.672;13.622;2022-11-20T13:17:19;8.00;67.40
38325;DHT22;24126;52.672;13.622;2022-11-20T13:19:52;8.00;67.50
38325;DHT22;24126;52.672;13.622;2022-11-20T13:23:03;8.00;67.60
38325;DHT22;24126;52.672;13.622;2022-11-20T13:25:21;7.90;67.70
38325;DHT22;24126;52.672;13.622;2022-11-20T13:27:48;7.90;67.70
38325;DHT22;24126;52.672;13.622;2022-11-20T13:30:17;7.90;67.40
38325;DHT22;24126;52.672;13.622;2022-11-20T13:32:55;7.90;67.50
38325;DHT22;24126;52.672;13.622;2022-11-20T13:35:24;7.80;67.50
38325;DHT22;24126;52.672;13.622;2022-11-20T13:38:13;7.80;67.70
38325;DHT22;24126;52.672;13.622;2022-11-20T13:46:03;7.70;67.90
38325;DHT22;24126;52.672;13.622;2022-11-20T13:48:33;7.70;67.90
38325;DHT22;24126;52.672;13.622;2022-11-20T13:51:05;7.70;67.90
38325;DHT22;24126;52.672;13.622;2022-11-20T13:53:47;7.70;68.00
38325;DHT22;24126;52.672;13.622;2022-11-20T13:56:23;7.70;67.90
38325;DHT22;24126;52.672;13.622;2022-11-20T14:01:29;7.70;67.80
38325;DHT22;24126;52.672;13.622;2022-11-20T14:03:57;7.70;67.80
38325;DHT22;24126;52.672;13.622;2022-11-20T14:08:54;7.70;68.00
38325;DHT22;24126;52.672;13.622;2022-11-20T14:11:23;7.60;67.80
38325;DHT22;24126;52.672;13.622;2022-11-20T14:16:36;7.60;67.80
38325;DHT22;24126;52.672;13.622;2022-11-20T14:21:48;7.50;67.60
38325;DHT22;24126;52.672;13.622;2022-11-20T14:24:18;7.50;67.80
38325;DHT22;24126;52.672;13.622;2022-11-20T14:26:46;7.40;67.80
38325;DHT22;24126;52.672;13.622;2022-11-20T14:29:14;7.40;68.10
38325;DHT22;24126;52.672;13.622;2022-11-20T14:31:42;7.30;68.10
38325;DHT22;24126;52.672;13.622;2022-11-20T14:34:14;7.30;68.10
38325;DHT22;24126;52.672;13.622;2022-11-20T14:36:42;7.20;68.20
38325;DHT22;24126;52.672;13.622;2022-11-20T14:39:11;7.20;68.10
38325;DHT22;24126;52.672;13.622;2022-11-20T14:41:38;7.30;68.20
38325;DHT22;24126;52.672;13.622;2022-11-20T14:44:08;7.20;68.10
38325;DHT22;24126;52.672;13.622;2022-11-20T14:46:36;7.20;68.10
38325;DHT22;24126;52.672;13.622;2022-11-20T14:49:03;7.20;67.90
38325;DHT22;24126;52.672;13.622;2022-11-20T14:51:38;7.20;68.10
38325;DHT22;24126;52.672;13.622;2022-11-20T14:54:08;7.10;68.20
38325;DHT22;24126;52.672;13.622;2022-11-20T14:56:35;7.10;68.40
38325;DHT22;24126;52.672;13.622;2022-11-20T14:59:02;7.10;68.40
38325;DHT22;24126;52.672;13.622;2022-11-20T15:01:30;7.10;68.40
38325;DHT22;24126;52.672;13.622;2022-11-20T15:04:07;7.10;68.40
38325;DHT22;24126;52.672;13.622;2022-11-20T15:06:35;7.10;68.40
38325;DHT22;24126;52.672;13.622;2022-11-20T15:09:03;7.00;68.50
38325;DHT22;24126;52.672;13.622;2022-11-20T15:11:32;7.00;68.60
38325;DHT22;24126;52.672;13.622;2022-11-20T15:14:04;7.00;68.50
38325;DHT22;24126;52.672;13.622;2022-11-20T15:16:32;6.90;68.60
38325;DHT22;24126;52.672;13.622;2022-11-20T15:18:59;6.90;68.80
38325;DHT22;24126;52.672;13.622;2022-11-20T15:21:27;6.90;68.70
38325;DHT22;24126;52.672;13.622;2022-11-20T15:23:57;6.90;68.80
38325;DHT22;24126;52.672;13.622;2022-11-20T15:26:25;6.90;68.90
38325;DHT22;24126;52.672;13.622;2022-11-20T15:28:53;6.90;68.80
38325;DHT22;24126;52.672;13.622;2022-11-20T15:31:21;6.90;68.80
38325;DHT22;24126;52.672;13.622;2022-11-20T15:33:50;6.90;68.80
38325;DHT22;24126;52.672;13.622;2022-11-20T15:36:17;6.90;68.80
38325;DHT22;24126;52.672;13.622;2022-11-20T15:38:44;6.90;68.90
38325;DHT22;24126;52.672;13.622;2022-11-20T15:41:11;6.90;68.80
38325;DHT22;24126;52.672;13.622;2022-11-20T15:43:38;6.90;68.80
38325;DHT22;24126;52.672;13.622;2022-11-20T15:46:15;6.90;68.90
38325;DHT22;24126;52.672;13.622;2022-11-20T15:48:44;6.90;69.00
38325;DHT22;24126;52.672;13.622;2022-11-20T15:53:38;6.80;68.80
38325;DHT22;24126;52.672;13.622;2022-11-20T15:56:06;6.80;68.80
38325;DHT22;24126;52.672;13.622;2022-11-20T15:58:33;6.80;69.10
38325;DHT22;24126;52.672;13.622;2022-11-20T16:01:00;6.90;69.20
38325;DHT22;24126;52.672;13.622;2022-11-20T16:03:27;6.80;69.00
38325;DHT22;24126;52.672;13.622;2022-11-20T16:05:54;6.80;69.10
38325;DHT22;24126;52.672;13.622;2022-11-20T16:08:21;6.80;69.00
38325;DHT22;24126;52.672;13.622;2022-11-20T16:10:48;6.80;69.20
38325;DHT22;24126;52.672;13.622;2022-11-20T16:13:16;6.80;69.10
38325;DHT22;24126;52.672;13.622;2022-11-20T16:16:03;6.80;69.10
38325;DHT22;24126;52.672;13.622;2022-11-20T16:18:32;6.80;69.20
38325;DHT22;24126;52.672;13.622;2022-11-20T16:20:59;6.80;69.20
38325;DHT22;24126;52.672;13.622;2022-11-20T16:23:26;6.80;69.20
38325;DHT22;24126;52.672;13.622;2022-11-20T16:25:54;6.80;69.20
38325;DHT22;24126;52.672;13.622;2022-11-20T16:28:21;6.80;69.30
38325;DHT22;24126;52.672;13.622;2022-11-20T16:30:48;6.90;69.30
38325;DHT22;24126;52.672;13.622;2022-11-20T16:33:16;6.90;69.20
38325;DHT22;24126;52.672;13.622;2022-11-20T16:35:43;6.90;69.00
38325;DHT22;24126;52.672;13.622;2022-11-20T16:38:10;6.90;69.10
38325;DHT22;24126;52.672;13.622;2022-11-20T16:40:37;6.90;69.10
38325;DHT22;24126;52.672;13.622;2022-11-20T16:43:06;6.90;69.00
38325;DHT22;24126;52.672;13.622;2022-11-20T16:45:34;6.90;69.20
38325;DHT22;24126;52.672;13.622;2022-11-20T16:48:01;6.90;69.00
38325;DHT22;24126;52.672;13.622;2022-11-20T16:50:28;6.80;68.90
38325;DHT22;24126;52.672;13.622;2022-11-20T16:52:55;6.80;68.90
38325;DHT22;24126;52.672;13.622;2022-11-20T16:55:22;6.80;68.90
38325;DHT22;24126;52.672;13.622;2022-11-20T16:57:49;6.80;69.00